createdAt,value
2018-11-10T00:00:08.477Z,90.47
2018-11-10T00:01:12.337Z,90.32
2018-11-10T00:02:19.260Z,90.12
2018-11-10T00:03:22.506Z,90.47
2018-11-10T00:04:28.099Z,91.01
2018-11-10T00:05:31.834Z,90.74
2018-11-10T00:06:34.856Z,90.77
2018-11-10T00:07:38.431Z,90.89
2018-11-10T00:08:42.932Z,91.10
2018-11-10T00:09:45.682Z,90.52
2018-11-10T00:10:49.192Z,90.89
2018-11-10T00:11:52.344Z,91.15
2018-11-10T00:12:55.717Z,91.12
2018-11-10T00:13:59.433Z,90.81
2018-11-10T00:15:02.801Z,90.80
2018-11-10T00:16:05.536Z,90.56
2018-11-10T00:17:08.518Z,90.46
2018-11-10T00:18:14.543Z,90.79
2018-11-10T00:19:19.942Z,90.64
2018-11-10T00:20:22.638Z,90.51
2018-11-10T00:21:29.582Z,90.36
2018-11-10T00:22:33.779Z,90.28
2018-11-10T00:23:37.826Z,90.71
2018-11-10T00:24:41.732Z,90.16
2018-11-10T00:25:45.547Z,90.23
2018-11-10T00:26:48.267Z,90.19
2018-11-10T00:27:51.864Z,90.22
2018-11-10T00:28:55.216Z,90.41
2018-11-10T00:29:58.828Z,90.44
2018-11-10T00:31:02.261Z,90.02
2018-11-10T00:32:06.437Z,90.14
2018-11-10T00:33:09.147Z,90.65
2018-11-10T00:34:13.218Z,90.63
2018-11-10T00:35:16.034Z,90.12
2018-11-10T00:36:19.941Z,89.77
2018-11-10T00:37:22.652Z,90.33
2018-11-10T00:38:28.473Z,90.56
2018-11-10T00:39:32.893Z,90.46
2018-11-10T00:40:36.746Z,90.22
2018-11-10T00:41:39.832Z,90.02
2018-11-10T00:42:44.110Z,89.82
2018-11-10T00:43:48.702Z,89.83
2018-11-10T00:44:52.315Z,90.13
2018-11-10T00:45:56.406Z,90.23
2018-11-10T00:47:00.129Z,90.19
2018-11-10T00:49:11.546Z,90.40
2018-11-10T00:50:14.709Z,89.49
2018-11-10T00:51:17.511Z,89.74
2018-11-10T00:52:21.254Z,89.61
2018-11-10T00:53:24.250Z,89.54
2018-11-10T00:54:27.156Z,89.66
2018-11-10T00:55:30.776Z,89.66
2018-11-10T00:56:39.199Z,89.55
2018-11-10T00:57:42.406Z,89.31
2018-11-10T00:58:46.667Z,88.93
2018-11-10T00:59:49.687Z,88.81
2018-11-10T01:00:53.643Z,89.08
2018-11-10T01:01:57.255Z,88.63
2018-11-10T01:02:59.996Z,88.81
2018-11-10T01:04:03.529Z,88.14
2018-11-10T01:05:06.255Z,88.27
2018-11-10T01:06:11.383Z,88.44
2018-11-10T01:07:14.245Z,88.03
2018-11-10T01:08:18.156Z,87.91
2018-11-10T01:09:21.427Z,88.20
2018-11-10T01:10:24.971Z,87.96
2018-11-10T01:11:29.336Z,87.02
2018-11-10T01:12:32.508Z,87.38
2018-11-10T01:13:35.188Z,87.33
2018-11-10T01:14:37.940Z,87.33
2018-11-10T01:15:41.479Z,86.98
2018-11-10T01:16:44.212Z,87.29
2018-11-10T01:19:21.475Z,87.74
2018-11-10T01:20:24.995Z,87.56
2018-11-10T01:21:28.362Z,87.41
2018-11-10T01:22:31.699Z,87.51
2018-11-10T01:23:36.211Z,87.47
2018-11-10T01:24:44.556Z,87.48
2018-11-10T01:25:48.331Z,87.50
2018-11-10T01:26:53.037Z,87.70
2018-11-10T01:27:57.335Z,87.26
2018-11-10T01:29:00.542Z,87.36
2018-11-10T01:30:03.640Z,87.52
2018-11-10T01:31:08.192Z,87.92
2018-11-10T01:32:17.335Z,87.63
2018-11-10T01:33:21.040Z,88.06
2018-11-10T01:34:23.732Z,87.65
2018-11-10T01:35:26.416Z,87.62
2018-11-10T01:36:29.716Z,87.50
2018-11-10T01:37:33.164Z,87.84
2018-11-10T01:38:37.788Z,87.97
2018-11-10T01:39:40.488Z,88.25
2018-11-10T01:40:44.088Z,88.62
2018-11-10T01:41:48.068Z,88.61
2018-11-10T01:42:51.382Z,88.69
2018-11-10T01:43:54.395Z,87.95
2018-11-10T01:44:57.150Z,88.49
2018-11-10T01:46:01.060Z,88.09
2018-11-10T01:47:05.526Z,88.21
2018-11-10T01:48:08.243Z,88.15
2018-11-10T01:49:11.568Z,88.45
2018-11-10T01:50:14.650Z,88.47
2018-11-10T01:51:17.388Z,88.90
2018-11-10T01:52:20.076Z,88.74
2018-11-10T01:53:22.779Z,88.71
2018-11-10T01:54:26.709Z,88.21
2018-11-10T01:55:33.083Z,88.45
2018-11-10T01:56:36.079Z,88.38
2018-11-10T01:57:38.812Z,88.81
2018-11-10T01:58:42.521Z,88.73
2018-11-10T01:59:45.252Z,88.64
2018-11-10T02:00:48.142Z,88.83
2018-11-10T02:01:50.915Z,88.54
2018-11-10T02:02:54.279Z,88.66
2018-11-10T02:03:58.511Z,88.66
2018-11-10T02:05:01.509Z,88.59
2018-11-10T02:06:04.491Z,88.67
2018-11-10T02:07:09.341Z,88.53
2018-11-10T02:08:13.596Z,88.17
2018-11-10T02:09:16.915Z,88.23
2018-11-10T02:10:19.810Z,87.69
2018-11-10T02:11:23.740Z,87.92
2018-11-10T02:12:28.302Z,87.37
2018-11-10T02:13:32.759Z,87.51
2018-11-10T02:14:37.089Z,86.92
2018-11-10T02:15:41.315Z,86.87
2018-11-10T02:16:44.077Z,86.61
2018-11-10T02:17:47.027Z,86.78
2018-11-10T02:18:49.786Z,86.31
2018-11-10T02:19:52.965Z,86.97
2018-11-10T02:20:56.375Z,87.40
2018-11-10T02:21:59.969Z,86.66
2018-11-10T02:23:03.831Z,87.10
2018-11-10T02:24:06.614Z,86.86
2018-11-10T02:25:12.416Z,86.54
2018-11-10T02:26:16.325Z,86.92
2018-11-10T02:27:23.690Z,86.70
2018-11-10T02:28:28.301Z,86.41
2018-11-10T02:29:31.068Z,86.67
2018-11-10T02:30:35.364Z,86.47
2018-11-10T02:31:38.252Z,86.58
2018-11-10T02:32:42.036Z,86.75
2018-11-10T02:33:44.777Z,86.77
2018-11-10T02:34:47.874Z,86.58
2018-11-10T02:35:51.283Z,86.36
2018-11-10T02:36:54.027Z,86.88
2018-11-10T02:37:57.987Z,86.59
2018-11-10T02:39:00.880Z,86.35
2018-11-10T02:40:04.889Z,86.47
2018-11-10T02:42:16.746Z,85.97
2018-11-10T02:43:21.059Z,85.93
2018-11-10T02:44:24.508Z,85.50
2018-11-10T02:45:28.097Z,85.48
2018-11-10T02:46:31.732Z,86.00
2018-11-10T02:47:34.738Z,85.63
2018-11-10T02:48:38.828Z,85.81
2018-11-10T02:49:42.510Z,85.46
2018-11-10T02:50:45.250Z,85.46
2018-11-10T02:51:48.928Z,85.52
2018-11-10T02:52:53.397Z,85.50
2018-11-10T02:53:56.708Z,85.68
2018-11-10T02:54:59.477Z,85.93
2018-11-10T02:56:02.263Z,85.43
2018-11-10T02:57:05.005Z,86.08
2018-11-10T02:58:07.734Z,86.38
2018-11-10T02:59:10.476Z,86.07
2018-11-10T03:00:14.689Z,86.07
2018-11-10T03:01:17.410Z,86.03
2018-11-10T03:02:21.343Z,86.43
2018-11-10T03:03:24.448Z,86.29
2018-11-10T03:04:27.712Z,86.55
2018-11-10T03:05:31.747Z,86.17
2018-11-10T03:06:34.838Z,86.89
2018-11-10T03:07:37.941Z,86.51
2018-11-10T03:08:41.194Z,86.38
2018-11-10T03:09:44.505Z,86.76
2018-11-10T03:10:47.284Z,86.50
2018-11-10T03:11:50.047Z,86.57
2018-11-10T03:12:53.102Z,86.70
2018-11-10T03:13:55.883Z,86.54
2018-11-10T03:14:59.396Z,86.15
2018-11-10T03:16:02.173Z,86.53
2018-11-10T03:17:04.899Z,86.39
2018-11-10T03:18:08.528Z,86.61
2018-11-10T03:19:11.537Z,86.45
2018-11-10T03:20:15.388Z,86.61
2018-11-10T03:21:18.265Z,86.30
2018-11-10T03:22:21.026Z,86.34
2018-11-10T03:23:24.338Z,85.93
2018-11-10T03:24:27.134Z,86.06
2018-11-10T03:25:30.302Z,86.05
2018-11-10T03:26:33.159Z,86.55
2018-11-10T03:27:37.778Z,86.08
2018-11-10T03:28:42.720Z,86.12
2018-11-10T03:29:45.568Z,86.22
2018-11-10T03:30:48.817Z,85.85
2018-11-10T03:31:54.853Z,86.27
2018-11-10T03:32:58.182Z,85.89
2018-11-10T03:34:01.607Z,85.92
2018-11-10T03:35:04.363Z,85.46
2018-11-10T03:36:07.472Z,85.31
2018-11-10T03:37:10.565Z,85.50
2018-11-10T03:38:14.157Z,85.50
2018-11-10T03:39:18.173Z,84.87
2018-11-10T03:40:23.187Z,85.17
2018-11-10T03:41:26.352Z,85.24
2018-11-10T03:42:29.560Z,85.64
2018-11-10T03:43:32.846Z,85.37
2018-11-10T03:44:37.072Z,85.67
2018-11-10T03:45:41.679Z,85.08
2018-11-10T03:46:45.277Z,84.77
2018-11-10T03:47:48.782Z,84.98
2018-11-10T03:48:53.169Z,84.88
2018-11-10T03:49:56.333Z,84.74
2018-11-10T03:50:59.444Z,85.17
2018-11-10T03:52:02.322Z,85.52
2018-11-10T03:53:05.054Z,85.17
2018-11-10T03:54:08.046Z,85.19
2018-11-10T03:55:11.044Z,84.85
2018-11-10T03:56:13.786Z,84.61
2018-11-10T03:57:16.844Z,85.12
2018-11-10T03:58:19.648Z,84.85
2018-11-10T03:59:22.631Z,84.86
2018-11-10T04:00:26.618Z,85.34
2018-11-10T04:01:29.572Z,85.24
2018-11-10T04:02:33.461Z,85.10
2018-11-10T04:03:37.965Z,85.50
2018-11-10T04:04:43.824Z,85.36
2018-11-10T04:05:47.028Z,84.81
2018-11-10T04:06:50.021Z,85.02
2018-11-10T04:07:52.874Z,85.12
2018-11-10T04:08:56.522Z,85.04
2018-11-10T04:10:00.333Z,84.60
2018-11-10T04:11:03.978Z,85.26
2018-11-10T04:12:07.882Z,84.62
2018-11-10T04:13:10.707Z,84.82
2018-11-10T04:15:24.854Z,84.85
2018-11-10T04:16:27.918Z,84.86
2018-11-10T04:17:30.815Z,84.54
2018-11-10T04:18:34.770Z,84.77
2018-11-10T04:19:37.560Z,84.88
2018-11-10T04:20:40.723Z,85.17
2018-11-10T04:21:43.813Z,84.77
2018-11-10T04:22:46.942Z,85.12
2018-11-10T04:23:49.761Z,85.01
2018-11-10T04:24:53.817Z,84.89
2018-11-10T04:25:57.722Z,85.39
2018-11-10T04:27:01.902Z,85.26
2018-11-10T04:28:05.734Z,85.38
2018-11-10T04:29:09.003Z,85.76
2018-11-10T04:30:12.892Z,85.81
2018-11-10T04:31:15.666Z,85.69
2018-11-10T04:32:18.466Z,85.52
2018-11-10T04:33:21.232Z,85.77
2018-11-10T04:34:24.005Z,85.80
2018-11-10T04:35:27.822Z,85.63
2018-11-10T04:36:30.781Z,86.04
2018-11-10T04:37:37.288Z,85.85
2018-11-10T04:38:40.116Z,86.31
2018-11-10T04:39:44.004Z,85.83
2018-11-10T04:40:47.649Z,86.23
2018-11-10T04:41:52.051Z,86.35
2018-11-10T04:42:54.801Z,86.23
2018-11-10T04:43:57.679Z,85.57
2018-11-10T04:45:00.460Z,85.46
2018-11-10T04:46:03.258Z,85.82
2018-11-10T04:47:06.029Z,86.21
2018-11-10T04:48:10.393Z,86.07
2018-11-10T04:49:13.203Z,86.12
2018-11-10T04:50:16.414Z,86.18
2018-11-10T04:51:21.560Z,86.59
2018-11-10T04:52:24.357Z,86.18
2018-11-10T04:53:28.170Z,86.47
2018-11-10T04:54:31.599Z,86.78
2018-11-10T04:55:35.788Z,87.50
2018-11-10T04:56:38.661Z,87.37
2018-11-10T04:57:41.915Z,87.51
2018-11-10T04:58:44.692Z,87.80
2018-11-10T04:59:47.429Z,87.88
2018-11-10T05:00:50.518Z,88.03
2018-11-10T05:01:53.285Z,88.37
2018-11-10T05:02:57.462Z,88.97
2018-11-10T05:04:01.158Z,88.52
2018-11-10T05:05:03.902Z,89.09
2018-11-10T05:06:06.718Z,88.93
2018-11-10T05:07:10.176Z,89.11
2018-11-10T05:08:13.430Z,89.24
2018-11-10T05:09:16.298Z,89.22
2018-11-10T05:10:19.201Z,89.59
2018-11-10T05:11:22.297Z,89.27
2018-11-10T05:12:25.056Z,89.58
2018-11-10T05:13:29.389Z,89.82
2018-11-10T05:14:33.930Z,89.61
2018-11-10T05:15:37.473Z,89.62
2018-11-10T05:16:41.971Z,90.21
2018-11-10T05:17:44.743Z,89.75
2018-11-10T05:18:47.598Z,89.40
2018-11-10T05:19:50.889Z,89.62
2018-11-10T05:20:54.328Z,90.03
2018-11-10T05:22:00.082Z,89.89
2018-11-10T05:23:02.826Z,89.48
2018-11-10T05:24:06.908Z,89.89
2018-11-10T05:25:12.747Z,89.75
2018-11-10T05:26:16.128Z,89.90
2018-11-10T05:27:19.837Z,90.03
2018-11-10T05:28:23.963Z,89.92
2018-11-10T05:29:27.523Z,90.05
2018-11-10T05:30:30.282Z,89.80
2018-11-10T05:31:34.602Z,89.84
2018-11-10T05:32:37.730Z,89.95
2018-11-10T05:33:40.506Z,89.74
2018-11-10T05:34:43.763Z,90.21
2018-11-10T05:35:46.608Z,89.84
2018-11-10T05:36:49.972Z,89.85
2018-11-10T05:37:53.426Z,89.82
2018-11-10T05:38:58.666Z,89.92
2018-11-10T05:40:01.517Z,89.84
2018-11-10T05:41:04.274Z,90.12
2018-11-10T05:42:07.258Z,89.98
2018-11-10T05:43:10.494Z,90.00
2018-11-10T05:44:13.256Z,90.01
2018-11-10T05:45:16.431Z,89.88
2018-11-10T05:46:19.318Z,89.53
2018-11-10T05:47:22.871Z,89.42
2018-11-10T05:48:27.066Z,89.37
2018-11-10T05:49:30.326Z,89.40
2018-11-10T05:50:33.920Z,89.24
2018-11-10T05:51:39.118Z,89.16
2018-11-10T05:52:42.826Z,89.03
2018-11-10T05:53:45.830Z,88.86
2018-11-10T05:54:48.696Z,88.90
2018-11-10T05:55:51.433Z,88.91
2018-11-10T05:56:55.846Z,88.41
2018-11-10T05:57:59.329Z,88.79
2018-11-10T05:59:02.081Z,88.42
2018-11-10T06:00:05.412Z,88.46
2018-11-10T06:01:09.998Z,88.22
2018-11-10T06:02:14.287Z,88.76
2018-11-10T06:03:18.738Z,88.56
2018-11-10T06:04:22.794Z,88.65
2018-11-10T06:05:26.179Z,88.37
2018-11-10T06:06:29.261Z,89.03
2018-11-10T06:07:32.052Z,88.42
2018-11-10T06:08:36.559Z,88.52
2018-11-10T06:09:39.426Z,88.51
2018-11-10T06:10:42.576Z,88.26
2018-11-10T06:11:45.535Z,88.47
2018-11-10T06:12:50.332Z,88.13
2018-11-10T06:13:56.332Z,87.99
2018-11-10T06:14:59.685Z,88.01
2018-11-10T06:16:02.479Z,87.97
2018-11-10T06:17:05.533Z,87.96
2018-11-10T06:18:08.611Z,87.87
2018-11-10T06:19:11.604Z,87.66
2018-11-10T06:20:14.890Z,88.37
2018-11-10T06:21:17.625Z,87.88
2018-11-10T06:22:21.405Z,87.63
2018-11-10T06:23:25.438Z,87.88
2018-11-10T06:24:30.197Z,87.98
2018-11-10T06:25:33.261Z,87.89
2018-11-10T06:26:36.393Z,87.83
2018-11-10T06:27:39.260Z,87.73
2018-11-10T06:28:42.026Z,87.67
2018-11-10T06:29:44.760Z,88.10
2018-11-10T06:30:49.079Z,88.00
2018-11-10T06:45:24.265Z,87.77
2018-11-10T06:46:27.751Z,88.00
2018-11-10T06:47:30.514Z,87.61
2018-11-10T06:48:33.588Z,87.72
2018-11-10T06:49:38.343Z,87.87
2018-11-10T06:50:41.361Z,87.63
2018-11-10T06:51:45.307Z,87.67
2018-11-10T06:52:49.018Z,87.72
2018-11-10T06:53:51.790Z,87.88
2018-11-10T06:54:56.043Z,87.89
2018-11-10T06:55:58.799Z,87.79
2018-11-10T06:57:01.844Z,87.87
2018-11-10T06:58:04.633Z,87.97
2018-11-10T06:59:07.532Z,88.11
2018-11-10T07:00:11.233Z,88.55
2018-11-10T07:01:14.012Z,88.47
2018-11-10T07:02:16.770Z,88.22
2018-11-10T07:03:20.955Z,88.14
2018-11-10T07:04:27.178Z,87.90
2018-11-10T07:05:30.409Z,87.97
2018-11-10T07:06:35.973Z,88.41
2018-11-10T07:07:39.258Z,88.30
2018-11-10T07:08:46.623Z,87.93
2018-11-10T07:09:50.962Z,88.22
2018-11-10T07:10:55.204Z,87.78
2018-11-10T07:11:58.024Z,87.79
2018-11-10T07:13:04.490Z,87.71
2018-11-10T07:14:07.433Z,87.85
2018-11-10T07:15:10.383Z,88.09
2018-11-10T07:16:15.238Z,87.77
2018-11-10T07:17:18.007Z,88.24
2018-11-10T07:18:21.055Z,87.83
2018-11-10T07:19:25.695Z,87.96
2018-11-10T07:20:29.206Z,87.80
2018-11-10T07:21:32.909Z,87.92
2018-11-10T07:22:35.960Z,88.20
2018-11-10T07:23:39.106Z,87.86
2018-11-10T07:24:43.405Z,87.83
2018-11-10T07:25:46.142Z,87.77
2018-11-10T07:26:53.589Z,88.06
2018-11-10T07:27:57.930Z,87.89
2018-11-10T07:29:00.975Z,87.69
2018-11-10T07:30:04.014Z,87.65
2018-11-10T07:31:06.984Z,87.54
2018-11-10T07:32:13.576Z,87.70
2018-11-10T07:33:16.380Z,87.88
2018-11-10T07:34:20.300Z,87.66
2018-11-10T07:35:24.420Z,87.48
2018-11-10T07:36:27.259Z,87.89
2018-11-10T07:37:30.418Z,88.14
2018-11-10T07:38:33.497Z,88.11
2018-11-10T07:39:39.218Z,87.68
2018-11-10T07:40:42.553Z,88.52
2018-11-10T07:41:45.626Z,88.53
2018-11-10T07:42:51.035Z,88.65
2018-11-10T07:43:54.102Z,88.62
2018-11-10T07:44:56.873Z,88.58
2018-11-10T07:46:03.034Z,88.31
2018-11-10T07:47:07.495Z,88.64
2018-11-10T07:48:12.157Z,88.50
2018-11-10T07:49:16.218Z,88.43
2018-11-10T07:50:19.117Z,87.82
2018-11-10T07:51:23.600Z,88.50
2018-11-10T07:52:26.658Z,88.23
2018-11-10T07:53:30.972Z,88.30
2018-11-10T07:54:34.701Z,88.26
2018-11-10T07:55:38.203Z,88.33
2018-11-10T07:56:42.710Z,88.15
2018-11-10T07:57:45.479Z,88.16
2018-11-10T07:58:50.679Z,88.39
2018-11-10T07:59:55.329Z,88.45
2018-11-10T08:01:01.011Z,88.01
2018-11-10T08:02:04.791Z,88.16
2018-11-10T08:03:07.559Z,87.87
2018-11-10T08:04:13.658Z,88.17
2018-11-10T08:05:18.601Z,88.38
2018-11-10T08:06:22.693Z,88.78
2018-11-10T08:07:26.267Z,89.19
2018-11-10T08:08:31.287Z,88.80
2018-11-10T08:09:34.451Z,88.51
2018-11-10T08:10:38.489Z,89.24
2018-11-10T08:11:42.618Z,88.59
2018-11-10T08:12:45.845Z,88.81
2018-11-10T08:13:48.596Z,88.90
2018-11-10T08:14:53.435Z,89.23
2018-11-10T08:15:56.794Z,89.29
2018-11-10T08:17:02.929Z,89.09
2018-11-10T08:18:05.675Z,89.06
2018-11-10T08:19:09.252Z,89.09
2018-11-10T08:20:16.026Z,88.97
2018-11-10T08:21:20.358Z,89.33
2018-11-10T08:22:25.569Z,89.39
2018-11-10T08:23:28.666Z,89.23
2018-11-10T08:24:32.229Z,88.93
2018-11-10T08:25:36.522Z,89.37
2018-11-10T08:26:40.250Z,89.06
2018-11-10T08:27:46.042Z,89.24
2018-11-10T08:28:49.630Z,89.72
2018-11-10T08:29:53.248Z,89.58
2018-11-10T08:30:56.520Z,89.69
2018-11-10T08:32:00.523Z,89.63
2018-11-10T08:33:08.441Z,89.90
2018-11-10T08:34:11.227Z,89.72
2018-11-10T08:35:14.817Z,90.51
2018-11-10T08:36:18.422Z,90.29
2018-11-10T08:37:21.700Z,90.81
2018-11-10T08:38:24.893Z,90.51
2018-11-10T08:39:27.907Z,90.48
2018-11-10T08:40:30.653Z,90.72
2018-11-10T08:41:34.118Z,90.89
2018-11-10T08:42:41.095Z,91.16
2018-11-10T08:43:47.210Z,91.22
2018-11-10T08:44:50.700Z,91.30
2018-11-10T08:45:53.484Z,91.35
2018-11-10T08:46:56.348Z,91.43
2018-11-10T08:48:00.567Z,91.79
2018-11-10T08:49:06.903Z,91.51
2018-11-10T08:50:14.458Z,91.54
2018-11-10T08:51:21.645Z,91.76
2018-11-10T08:53:36.497Z,91.62
2018-11-10T08:54:39.531Z,91.61
2018-11-10T08:56:05.325Z,92.02
2018-11-10T08:57:08.241Z,92.01
2018-11-10T08:58:11.420Z,91.81
2018-11-10T08:59:15.098Z,91.86
2018-11-10T09:00:18.238Z,91.84
2018-11-10T09:01:21.139Z,92.02
2018-11-10T09:02:26.385Z,92.05
2018-11-10T09:03:29.826Z,92.13
2018-11-10T09:04:33.258Z,91.99
2018-11-10T09:05:36.029Z,91.97
2018-11-10T09:06:39.832Z,92.19
2018-11-10T09:07:47.607Z,92.16
2018-11-10T09:08:51.858Z,92.00
2018-11-10T09:09:54.775Z,92.30
2018-11-10T09:10:57.518Z,92.42
2018-11-10T09:12:00.719Z,92.62
2018-11-10T09:13:18.890Z,92.92
2018-11-10T09:14:22.190Z,92.26
2018-11-10T09:15:25.945Z,92.46
2018-11-10T09:16:29.504Z,92.68
2018-11-10T09:17:33.399Z,92.95
2018-11-10T09:18:36.960Z,92.85
2018-11-10T09:19:40.024Z,93.01
2018-11-10T09:20:43.778Z,92.81
2018-11-10T09:21:46.619Z,92.91
2018-11-10T09:22:51.660Z,92.93
2018-11-10T09:23:55.852Z,92.39
2018-11-10T09:24:59.257Z,92.76
2018-11-10T09:26:03.256Z,92.68
2018-11-10T09:27:06.550Z,92.36
2018-11-10T09:28:10.978Z,92.76
2018-11-10T09:29:13.750Z,92.74
2018-11-10T09:30:18.236Z,92.96
2018-11-10T09:31:21.922Z,92.74
2018-11-10T09:32:26.249Z,92.80
2018-11-10T09:33:30.402Z,92.59
2018-11-10T09:34:35.183Z,92.93
2018-11-10T09:35:37.936Z,92.54
2018-11-10T09:36:42.924Z,92.84
2018-11-10T09:37:45.681Z,92.68
2018-11-10T09:38:50.603Z,92.83
2018-11-10T09:39:56.673Z,93.19
2018-11-10T09:40:59.654Z,92.86
2018-11-10T09:42:02.993Z,92.78
2018-11-10T09:43:05.868Z,93.40
2018-11-10T09:44:09.258Z,92.52
2018-11-10T09:45:14.242Z,92.66
2018-11-10T09:46:19.920Z,93.02
2018-11-10T09:47:23.307Z,92.64
2018-11-10T09:48:26.108Z,93.12
2018-11-10T09:49:29.817Z,93.10
2018-11-10T09:50:33.230Z,92.99
2018-11-10T09:51:37.310Z,92.91
2018-11-10T09:52:45.930Z,92.77
2018-11-10T09:53:50.670Z,92.96
2018-11-10T09:54:54.619Z,92.96
2018-11-10T09:55:57.465Z,93.15
2018-11-10T09:57:00.337Z,92.87
2018-11-10T09:58:03.391Z,92.89
2018-11-10T09:59:06.633Z,92.95
2018-11-10T10:00:09.375Z,93.47
2018-11-10T10:01:17.090Z,93.30
2018-11-10T10:02:22.299Z,92.99
2018-11-10T10:03:26.506Z,93.27
2018-11-10T10:04:30.307Z,92.81
2018-11-10T10:05:36.862Z,92.92
2018-11-10T10:06:40.560Z,92.47
2018-11-10T10:07:45.112Z,92.79
2018-11-10T10:08:48.573Z,92.45
2018-11-10T10:09:52.590Z,92.59
2018-11-10T10:10:59.399Z,92.46
2018-11-10T10:12:02.620Z,92.47
2018-11-10T10:13:06.412Z,92.55
2018-11-10T10:14:12.266Z,92.18
2018-11-10T10:15:16.476Z,92.17
2018-11-10T10:16:20.159Z,92.47
2018-11-10T10:17:23.274Z,91.82
2018-11-10T10:18:27.845Z,92.19
2018-11-10T10:19:31.213Z,91.84
2018-11-10T10:20:34.003Z,92.46
2018-11-10T10:21:38.312Z,92.16
2018-11-10T10:22:41.961Z,91.70
2018-11-10T10:23:46.260Z,92.21
2018-11-10T10:24:50.818Z,91.72
2018-11-10T10:25:54.651Z,92.07
2018-11-10T10:26:57.812Z,92.28
2018-11-10T10:28:00.858Z,92.12
2018-11-10T10:29:05.644Z,91.97
2018-11-10T10:30:09.798Z,91.74
2018-11-10T10:31:13.469Z,91.73
2018-11-10T10:32:19.763Z,92.10
2018-11-10T10:33:24.889Z,91.68
2018-11-10T10:34:27.777Z,91.64
2018-11-10T10:35:30.930Z,91.30
2018-11-10T10:36:34.596Z,91.31
2018-11-10T10:37:37.870Z,90.94
2018-11-10T10:38:40.924Z,91.20
2018-11-10T10:39:45.031Z,90.75
2018-11-10T10:40:53.308Z,91.16
2018-11-10T10:41:56.114Z,91.00
2018-11-10T10:43:04.380Z,90.92
2018-11-10T10:44:14.310Z,90.80
2018-11-10T10:51:33.835Z,90.78
2018-11-10T10:52:40.724Z,90.62
2018-11-10T10:53:46.149Z,90.98
2018-11-10T10:54:52.946Z,90.79
2018-11-10T10:55:57.728Z,91.00
2018-11-10T10:57:04.271Z,90.88
2018-11-10T10:58:08.732Z,90.57
2018-11-10T10:59:11.936Z,90.91
2018-11-10T11:00:19.782Z,90.83
2018-11-10T11:01:28.866Z,91.07
2018-11-10T11:02:36.555Z,90.49
2018-11-10T11:03:44.814Z,90.81
2018-11-10T11:04:52.701Z,90.70
2018-11-10T11:06:01.406Z,90.76
2018-11-10T11:07:04.221Z,90.23
2018-11-10T11:08:09.136Z,90.82
2018-11-10T11:09:13.262Z,90.38
2018-11-10T11:10:17.558Z,90.16
2018-11-10T11:11:20.348Z,90.54
2018-11-10T11:12:23.389Z,90.25
2018-11-10T11:13:27.401Z,89.81
2018-11-10T11:14:30.145Z,89.94
2018-11-10T11:15:33.171Z,89.34
2018-11-10T11:16:36.981Z,89.59
2018-11-10T11:17:41.271Z,89.47
2018-11-10T11:18:44.472Z,89.32
2018-11-10T11:19:48.272Z,89.55
2018-11-10T11:21:05.504Z,89.65
2018-11-10T11:22:08.627Z,89.00
2018-11-10T11:23:12.550Z,89.06
2018-11-10T11:24:18.663Z,89.35
2018-11-10T11:25:22.394Z,89.21
2018-11-10T11:26:25.158Z,88.77
2018-11-10T11:27:28.346Z,89.70
2018-11-10T11:28:31.232Z,89.27
2018-11-10T11:29:35.669Z,89.47
2018-11-10T11:30:39.070Z,89.68
2018-11-10T11:44:47.372Z,89.69
2018-11-10T11:45:50.551Z,89.54
2018-11-10T11:46:54.275Z,89.47
2018-11-10T11:47:57.794Z,89.55
2018-11-10T11:49:02.748Z,89.29
2018-11-10T11:50:06.012Z,89.41
2018-11-10T11:51:09.809Z,88.71
2018-11-10T11:52:12.746Z,89.31
2018-11-10T11:53:15.965Z,89.09
2018-11-10T11:54:18.810Z,89.32
2018-11-10T11:55:22.053Z,89.85
2018-11-10T11:56:26.182Z,89.37
2018-11-10T11:57:29.591Z,89.45
2018-11-10T11:58:32.386Z,89.56
2018-11-10T11:59:35.156Z,89.61
2018-11-10T12:00:39.002Z,89.56
2018-11-10T12:01:42.634Z,89.55
2018-11-10T12:02:47.415Z,89.72
2018-11-10T12:03:50.798Z,89.74
2018-11-10T12:04:55.461Z,89.70
2018-11-10T12:05:59.020Z,89.96
2018-11-10T12:07:02.491Z,89.17
2018-11-10T12:08:08.158Z,89.45
2018-11-10T12:09:13.378Z,89.49
2018-11-10T12:10:17.865Z,89.44
2018-11-10T12:11:22.245Z,89.48
2018-11-10T12:12:32.000Z,89.68
2018-11-10T12:13:36.537Z,90.15
2018-11-10T12:14:42.049Z,89.57
2018-11-10T12:15:44.946Z,89.45
2018-11-10T12:16:47.912Z,89.04
2018-11-10T12:17:52.100Z,89.47
2018-11-10T12:18:55.605Z,89.72
2018-11-10T12:21:18.207Z,89.03
2018-11-10T12:22:24.482Z,89.21
2018-11-10T12:23:30.713Z,88.99
2018-11-10T12:24:34.486Z,88.86
2018-11-10T12:25:38.648Z,89.30
2018-11-10T12:26:42.665Z,88.54
2018-11-10T12:27:48.386Z,89.05
2018-11-10T12:28:52.165Z,88.77
2018-11-10T12:29:55.470Z,88.91
2018-11-10T12:31:00.318Z,89.17
2018-11-10T12:32:05.826Z,88.33
2018-11-10T12:33:08.581Z,88.01
2018-11-10T12:34:18.237Z,88.88
2018-11-10T12:35:24.051Z,89.15
2018-11-10T12:36:27.404Z,88.93
2018-11-10T12:37:31.219Z,88.53
2018-11-10T12:38:35.635Z,88.52
2018-11-10T12:39:43.710Z,88.77
2018-11-10T12:40:46.624Z,88.19
2018-11-10T12:41:53.405Z,88.35
2018-11-10T12:43:01.618Z,88.26
2018-11-10T12:44:07.350Z,87.88
2018-11-10T12:45:13.150Z,88.22
2018-11-10T12:46:15.929Z,88.00
2018-11-10T12:47:24.533Z,87.65
2018-11-10T12:48:30.724Z,87.80
2018-11-10T12:49:34.242Z,87.66
2018-11-10T12:50:37.761Z,87.77
2018-11-10T12:51:42.561Z,87.53
2018-11-10T12:52:47.608Z,87.38
2018-11-10T12:53:51.446Z,87.37
2018-11-10T12:55:00.114Z,87.69
2018-11-10T12:56:05.060Z,87.66
2018-11-10T12:57:11.582Z,87.54
2018-11-10T12:58:15.983Z,87.83
2018-11-10T12:59:19.315Z,87.94
2018-11-10T13:00:22.949Z,87.52
2018-11-10T13:01:25.788Z,88.64
2018-11-10T13:02:28.721Z,88.22
2018-11-10T13:03:35.127Z,88.28
2018-11-10T13:04:38.366Z,88.34
2018-11-10T13:05:42.405Z,88.29
2018-11-10T13:06:45.293Z,88.03
2018-11-10T13:07:48.682Z,88.46
2018-11-10T13:09:08.377Z,88.51
2018-11-10T13:10:13.335Z,88.45
2018-11-10T13:11:16.659Z,88.50
2018-11-10T13:12:20.777Z,87.71
2018-11-10T13:13:24.779Z,88.09
2018-11-10T13:14:28.672Z,88.14
2018-11-10T13:15:32.332Z,88.06
2018-11-10T13:16:35.156Z,88.37
2018-11-10T13:17:39.617Z,88.58
2018-11-10T13:18:46.081Z,88.65
2018-11-10T13:19:49.340Z,89.11
2018-11-10T13:20:52.086Z,89.03
2018-11-10T13:21:56.021Z,89.45
2018-11-10T13:22:59.473Z,89.12
2018-11-10T13:24:03.342Z,88.77
2018-11-10T13:25:08.072Z,88.67
2018-11-10T13:26:11.464Z,88.66
2018-11-10T13:27:15.611Z,88.94
2018-11-10T13:28:18.361Z,88.66
2018-11-10T13:29:21.756Z,88.69
2018-11-10T13:30:25.680Z,88.32
2018-11-10T13:31:30.118Z,88.27
2018-11-10T13:32:34.249Z,88.47
2018-11-10T13:33:37.235Z,88.26
2018-11-10T13:34:41.261Z,87.76
2018-11-10T13:35:44.152Z,87.82
2018-11-10T13:36:48.178Z,87.67
2018-11-10T13:37:51.049Z,87.35
2018-11-10T13:38:54.900Z,87.12
2018-11-10T13:39:57.844Z,87.38
2018-11-10T13:41:04.421Z,87.60
2018-11-10T13:42:08.051Z,87.16
2018-11-10T13:44:33.046Z,85.84
2018-11-10T13:45:35.823Z,86.67
2018-11-10T13:46:40.960Z,87.08
2018-11-10T13:47:58.393Z,87.29
2018-11-10T13:49:03.117Z,86.63
2018-11-10T13:50:09.529Z,86.30
2018-11-10T13:51:15.784Z,86.44
2018-11-10T13:52:23.746Z,86.89
2018-11-10T13:53:27.521Z,86.48
2018-11-10T13:54:32.820Z,86.99
2018-11-10T13:57:06.692Z,87.49
2018-11-10T13:58:11.332Z,87.59
2018-11-10T13:59:14.253Z,87.17
2018-11-10T14:00:19.043Z,86.95
2018-11-10T14:01:22.584Z,87.20
2018-11-10T14:02:26.358Z,87.18
2018-11-10T14:03:33.218Z,87.21
2018-11-10T14:04:37.568Z,86.76
2018-11-10T14:11:43.067Z,86.56
2018-11-10T14:12:47.214Z,87.13
2018-11-10T14:13:52.765Z,87.53
2018-11-10T14:14:57.596Z,87.95
2018-11-10T14:17:15.728Z,87.32
2018-11-10T14:18:21.768Z,87.25
2018-11-10T14:19:26.627Z,87.40
2018-11-10T14:20:30.751Z,87.53
2018-11-10T14:21:34.481Z,87.88
2018-11-10T14:22:40.547Z,87.19
2018-11-10T14:23:45.856Z,86.83
2018-11-10T14:24:50.335Z,87.73
2018-11-10T14:25:53.099Z,87.66
2018-11-10T14:26:56.479Z,87.25
2018-11-10T14:28:00.262Z,88.04
2018-11-10T14:29:03.294Z,87.77
2018-11-10T14:30:07.370Z,87.78
2018-11-10T14:31:11.847Z,87.79
2018-11-10T14:32:15.344Z,88.33
2018-11-10T14:33:18.238Z,87.98
2018-11-10T14:34:21.019Z,88.27